Time;durP1;ratioP1;P1;durP2;ratioP2;P2;SDS_P1;SDS_P2;PMS_P1;PMS_P2;Temp;Humidity;BMP_temperature;BMP_pressure;BME280_temperature;BME280_humidity;BME280_pressure;Samples;Min_cycle;Max_cycle;Signal;HPM_P1;HPM_P2
2022/08/20 00:01:23;;;;;;;;;;;21.90;45.60;;;;;;490230;242;1403;-50
2022/08/20 00:03:26;;;;;;;;;;;21.90;45.60;;;;;;489760;242;2205;-51
2022/08/20 00:05:26;;;;;;;;;;;21.90;45.60;;;;;;490161;242;1833;-51
2022/08/20 00:07:28;;;;;;;;;;;21.90;45.70;;;;;;490225;242;1249;-50
2022/08/20 00:09:29;;;;;;;;;;;21.90;45.70;;;;;;489919;242;1234;-50
2022/08/20 00:11:32;;;;;;;;;;;21.90;45.70;;;;;;489807;242;1287;-51
2022/08/20 00:13:32;;;;;;;;;;;21.90;45.80;;;;;;489872;242;1869;-51
2022/08/20 00:15:33;;;;;;;;;;;21.90;45.80;;;;;;490232;242;1295;-50
2022/08/20 00:17:36;;;;;;;;;;;21.90;45.80;;;;;;489823;242;1260;-50
2022/08/20 00:19:38;;;;;;;;;;;21.90;45.80;;;;;;490232;242;1221;-50
2022/08/20 00:21:39;;;;;;;;;;;21.90;45.80;;;;;;490247;242;1286;-50
2022/08/20 00:23:40;;;;;;;;;;;21.90;45.80;;;;;;489761;242;2253;-50
2022/08/20 00:25:42;;;;;;;;;;;21.90;45.90;;;;;;490252;242;1291;-51
2022/08/20 00:27:43;;;;;;;;;;;21.90;45.90;;;;;;490236;242;1307;-50
2022/08/20 00:29:44;;;;;;;;;;;21.90;45.90;;;;;;489817;242;1382;-51
2022/08/20 00:31:46;;;;;;;;;;;21.90;45.90;;;;;;490022;242;1323;-51
2022/08/20 00:33:47;;;;;;;;;;;21.90;45.90;;;;;;490264;242;1282;-51
2022/08/20 00:35:48;;;;;;;;;;;21.90;45.90;;;;;;490255;242;1287;-50
2022/08/20 00:37:49;;;;;;;;;;;21.90;45.90;;;;;;490162;242;1303;-50
2022/08/20 00:39:51;;;;;;;;;;;21.90;46.00;;;;;;490023;242;1228;-50
2022/08/20 00:41:52;;;;;;;;;;;21.90;46.00;;;;;;489787;242;2182;-51
2022/08/20 00:43:53;;;;;;;;;;;21.90;46.00;;;;;;489963;242;1294;-50
2022/08/20 00:45:56;;;;;;;;;;;21.90;46.10;;;;;;490258;242;1227;-51
2022/08/20 00:47:56;;;;;;;;;;;21.90;46.10;;;;;;489890;242;2297;-50
2022/08/20 00:49:57;;;;;;;;;;;21.90;46.10;;;;;;490260;242;1329;-50
2022/08/20 00:51:59;;;;;;;;;;;21.90;46.10;;;;;;490067;242;1316;-51
2022/08/20 00:54:00;;;;;;;;;;;21.90;46.10;;;;;;490254;242;1381;-51
2022/08/20 00:56:01;;;;;;;;;;;21.90;46.10;;;;;;490265;242;1424;-50
2022/08/20 00:58:03;;;;;;;;;;;21.90;46.20;;;;;;490260;242;1292;-50
2022/08/20 01:00:04;;;;;;;;;;;21.90;46.10;;;;;;489938;242;1533;-50
2022/08/20 01:02:06;;;;;;;;;;;21.90;46.20;;;;;;489797;242;2157;-50
2022/08/20 01:04:08;;;;;;;;;;;21.90;46.20;;;;;;489819;242;1252;-50
2022/08/20 01:06:10;;;;;;;;;;;21.90;46.20;;;;;;489835;242;2260;-50
2022/08/20 01:08:10;;;;;;;;;;;21.90;46.20;;;;;;490345;242;2195;-50
2022/08/20 01:10:11;;;;;;;;;;;21.90;46.30;;;;;;490289;242;1250;-50
2022/08/20 01:12:13;;;;;;;;;;;21.90;46.30;;;;;;489841;242;1256;-50
2022/08/20 01:14:29;;;;;;;;;;;21.90;46.30;;;;;;489949;242;1310;-51
2022/08/20 01:16:30;;;;;;;;;;;21.90;46.40;;;;;;490145;242;2120;-50
2022/08/20 01:18:30;;;;;;;;;;;21.90;46.40;;;;;;490311;242;2360;-50
2022/08/20 01:20:31;;;;;;;;;;;21.90;46.40;;;;;;490312;242;1362;-50
2022/08/20 01:24:52;;;;;;;;;;;21.90;46.40;;;;;;490023;241;1278;-51
2022/08/20 01:26:54;;;;;;;;;;;21.90;46.50;;;;;;490308;242;1241;-50
2022/08/20 01:28:55;;;;;;;;;;;21.90;46.50;;;;;;489856;242;1263;-51
2022/08/20 01:30:56;;;;;;;;;;;21.90;46.50;;;;;;489867;242;1258;-51
2022/08/20 01:32:57;;;;;;;;;;;21.90;46.50;;;;;;489936;242;1286;-50
2022/08/20 01:34:59;;;;;;;;;;;21.90;46.50;;;;;;489827;242;1200;-50
2022/08/20 01:37:00;;;;;;;;;;;21.90;46.50;;;;;;490297;242;1383;-50
2022/08/20 01:39:01;;;;;;;;;;;21.90;46.50;;;;;;489989;242;1305;-51
2022/08/20 01:41:03;;;;;;;;;;;21.90;46.50;;;;;;489805;242;1247;-51
2022/08/20 01:43:05;;;;;;;;;;;21.90;46.50;;;;;;489824;242;2154;-50
2022/08/20 01:45:05;;;;;;;;;;;21.90;46.50;;;;;;489794;242;2223;-51
2022/08/20 01:47:07;;;;;;;;;;;21.90;46.50;;;;;;490205;242;1292;-51
2022/08/20 01:49:08;;;;;;;;;;;21.90;46.50;;;;;;489852;242;1294;-50
2022/08/20 01:51:09;;;;;;;;;;;21.90;46.50;;;;;;490080;242;1350;-51
2022/08/20 01:53:11;;;;;;;;;;;21.90;46.50;;;;;;489925;242;1317;-51
2022/08/20 01:55:12;;;;;;;;;;;21.90;46.50;;;;;;489762;242;1333;-50
2022/08/20 01:57:13;;;;;;;;;;;21.90;46.50;;;;;;489770;242;1298;-50
2022/08/20 01:59:15;;;;;;;;;;;21.90;46.50;;;;;;489893;242;1475;-50
2022/08/20 02:01:16;;;;;;;;;;;21.90;46.60;;;;;;489742;242;1318;-51
2022/08/20 02:03:17;;;;;;;;;;;21.90;46.50;;;;;;490228;242;2200;-50
2022/08/20 02:05:19;;;;;;;;;;;21.90;46.60;;;;;;490249;242;1247;-50
2022/08/20 02:07:20;;;;;;;;;;;21.90;46.60;;;;;;489868;242;1278;-51
2022/08/20 02:09:22;;;;;;;;;;;21.90;46.60;;;;;;490224;242;1288;-51
2022/08/20 02:11:23;;;;;;;;;;;21.90;46.70;;;;;;489765;242;1289;-50
2022/08/20 02:13:24;;;;;;;;;;;21.90;46.70;;;;;;490232;242;1268;-50
2022/08/20 02:15:26;;;;;;;;;;;21.90;46.70;;;;;;490067;242;1227;-50
2022/08/20 02:17:27;;;;;;;;;;;21.90;46.70;;;;;;489773;242;1374;-50
2022/08/20 02:19:29;;;;;;;;;;;21.90;46.70;;;;;;490231;242;1246;-51
2022/08/20 02:21:30;;;;;;;;;;;21.90;46.70;;;;;;489856;242;1240;-51
2022/08/20 02:23:31;;;;;;;;;;;21.90;46.70;;;;;;489978;242;2185;-50
2022/08/20 02:25:32;;;;;;;;;;;21.90;46.70;;;;;;489999;242;1368;-51
2022/08/20 02:27:34;;;;;;;;;;;21.90;46.80;;;;;;490247;242;1378;-50
2022/08/20 02:29:35;;;;;;;;;;;21.90;46.80;;;;;;490270;242;1304;-50
2022/08/20 02:31:36;;;;;;;;;;;21.90;46.80;;;;;;489881;242;1316;-50
2022/08/20 02:33:38;;;;;;;;;;;21.90;46.80;;;;;;490286;242;1166;-50
2022/08/20 02:35:39;;;;;;;;;;;21.90;46.80;;;;;;490291;242;1308;-51
2022/08/20 02:37:41;;;;;;;;;;;21.90;46.90;;;;;;489962;242;1269;-50
2022/08/20 02:39:42;;;;;;;;;;;21.90;46.90;;;;;;490270;242;1173;-51
2022/08/20 02:41:43;;;;;;;;;;;21.90;46.80;;;;;;490023;242;1288;-51
2022/08/20 02:43:45;;;;;;;;;;;21.90;46.90;;;;;;489833;242;2162;-50
2022/08/20 02:45:46;;;;;;;;;;;21.90;46.90;;;;;;490082;242;1289;-50
2022/08/20 02:47:47;;;;;;;;;;;21.90;46.90;;;;;;489840;242;1235;-50
2022/08/20 02:49:49;;;;;;;;;;;21.90;46.90;;;;;;489946;242;1257;-51
2022/08/20 02:51:50;;;;;;;;;;;21.90;46.90;;;;;;489809;242;1287;-51
2022/08/20 02:53:51;;;;;;;;;;;21.90;46.90;;;;;;490092;242;1216;-50
2022/08/20 02:55:53;;;;;;;;;;;21.90;46.90;;;;;;490163;242;1271;-50
2022/08/20 02:57:54;;;;;;;;;;;21.90;46.90;;;;;;490122;242;1246;-51
2022/08/20 02:59:55;;;;;;;;;;;21.90;46.90;;;;;;489796;242;1294;-50
2022/08/20 03:01:57;;;;;;;;;;;21.90;47.00;;;;;;489864;242;1267;-51
2022/08/20 03:03:58;;;;;;;;;;;21.80;46.90;;;;;;490154;242;2329;-50
2022/08/20 03:05:59;;;;;;;;;;;21.90;47.00;;;;;;490149;242;1267;-50
2022/08/20 03:08:01;;;;;;;;;;;21.90;47.00;;;;;;489783;242;1345;-50
2022/08/20 03:10:02;;;;;;;;;;;21.90;47.00;;;;;;490215;242;1297;-51
2022/08/20 03:12:03;;;;;;;;;;;21.90;47.10;;;;;;490268;242;1313;-51
2022/08/20 03:14:05;;;;;;;;;;;21.90;47.00;;;;;;490276;242;1290;-50
2022/08/20 03:16:07;;;;;;;;;;;21.80;47.00;;;;;;489807;242;1285;-51
2022/08/20 03:18:08;;;;;;;;;;;21.90;47.10;;;;;;490206;242;1309;-51
2022/08/20 03:20:09;;;;;;;;;;;21.90;47.10;;;;;;490270;242;1368;-50
2022/08/20 03:22:11;;;;;;;;;;;21.90;47.10;;;;;;489843;242;1227;-51
2022/08/20 03:24:12;;;;;;;;;;;21.90;47.10;;;;;;490255;242;2188;-51
2022/08/20 03:26:13;;;;;;;;;;;21.90;47.00;;;;;;490293;242;1164;-51
2022/08/20 03:28:15;;;;;;;;;;;21.90;47.10;;;;;;489812;242;1211;-51
2022/08/20 03:30:16;;;;;;;;;;;21.90;47.10;;;;;;490264;242;1178;-51
2022/08/20 03:32:17;;;;;;;;;;;21.90;47.10;;;;;;489803;242;1242;-51
2022/08/20 03:34:19;;;;;;;;;;;21.90;47.10;;;;;;490101;242;1266;-50
2022/08/20 03:36:20;;;;;;;;;;;21.90;47.10;;;;;;490094;242;1262;-51
2022/08/20 03:38:22;;;;;;;;;;;21.90;47.10;;;;;;490164;242;1324;-50
2022/08/20 03:40:23;;;;;;;;;;;21.90;47.10;;;;;;489837;242;1226;-51
2022/08/20 03:42:24;;;;;;;;;;;21.90;47.10;;;;;;489917;242;1384;-51
2022/08/20 03:44:26;;;;;;;;;;;21.90;47.10;;;;;;490251;242;2161;-50
2022/08/20 03:46:27;;;;;;;;;;;21.90;47.10;;;;;;489873;242;1210;-50
2022/08/20 03:48:28;;;;;;;;;;;21.90;47.10;;;;;;490260;242;1190;-50
2022/08/20 03:50:30;;;;;;;;;;;21.90;47.10;;;;;;490265;242;1359;-51
2022/08/20 03:52:31;;;;;;;;;;;21.90;47.20;;;;;;490261;242;1190;-51
2022/08/20 03:54:32;;;;;;;;;;;21.90;47.20;;;;;;490037;242;1291;-51
2022/08/20 03:56:34;;;;;;;;;;;21.90;47.20;;;;;;490260;242;1245;-50
2022/08/20 03:58:35;;;;;;;;;;;21.90;47.10;;;;;;489788;242;1256;-51
2022/08/20 04:00:36;;;;;;;;;;;21.90;47.20;;;;;;489871;242;1327;-50
2022/08/20 04:02:38;;;;;;;;;;;21.90;47.20;;;;;;489917;242;1258;-50
2022/08/20 04:04:39;;;;;;;;;;;21.90;47.20;;;;;;490221;242;2122;-51
2022/08/20 04:06:40;;;;;;;;;;;21.90;47.20;;;;;;490273;242;1267;-50
2022/08/20 04:08:42;;;;;;;;;;;21.90;47.20;;;;;;489814;242;1269;-51
2022/08/20 04:10:45;;;;;;;;;;;21.90;47.20;;;;;;489818;242;1519;-51
2022/08/20 04:12:45;;;;;;;;;;;21.90;47.20;;;;;;490105;242;1451;-51
2022/08/20 04:14:46;;;;;;;;;;;21.90;47.20;;;;;;490275;242;1175;-50
2022/08/20 04:16:47;;;;;;;;;;;21.90;47.30;;;;;;489797;242;1236;-50
2022/08/20 04:18:49;;;;;;;;;;;21.90;47.20;;;;;;490296;242;1291;-52
2022/08/20 04:20:50;;;;;;;;;;;21.90;47.20;;;;;;490298;242;1275;-51
2022/08/20 04:22:52;;;;;;;;;;;21.90;47.20;;;;;;490045;242;1367;-50
2022/08/20 04:24:53;;;;;;;;;;;21.90;47.20;;;;;;489912;242;2117;-51
2022/08/20 04:26:54;;;;;;;;;;;21.90;47.30;;;;;;490299;242;1188;-50
2022/08/20 04:28:56;;;;;;;;;;;21.90;47.30;;;;;;490304;242;1328;-51
2022/08/20 04:30:57;;;;;;;;;;;21.90;47.30;;;;;;489835;242;1301;-50
2022/08/20 04:32:59;;;;;;;;;;;21.90;47.20;;;;;;490004;242;1366;-50
2022/08/20 04:35:00;;;;;;;;;;;21.90;47.30;;;;;;490218;242;1232;-51
2022/08/20 04:37:01;;;;;;;;;;;21.90;47.30;;;;;;489859;242;1431;-51
2022/08/20 04:39:03;;;;;;;;;;;21.90;47.30;;;;;;489846;242;1285;-50
2022/08/20 04:41:04;;;;;;;;;;;21.90;47.30;;;;;;490030;242;1257;-51
2022/08/20 04:43:05;;;;;;;;;;;21.90;47.40;;;;;;490297;242;1270;-51
2022/08/20 04:45:07;;;;;;;;;;;21.80;47.30;;;;;;490275;242;2205;-50
2022/08/20 04:47:08;;;;;;;;;;;21.90;47.40;;;;;;490208;242;1295;-51
2022/08/20 04:49:09;;;;;;;;;;;21.90;47.40;;;;;;490299;242;1305;-51
2022/08/20 04:51:13;;;;;;;;;;;21.90;47.40;;;;;;490306;242;1249;-50
2022/08/20 04:53:13;;;;;;;;;;;21.80;47.40;;;;;;490005;242;2159;-51
2022/08/20 04:55:15;;;;;;;;;;;21.90;47.40;;;;;;489832;242;1276;-51
2022/08/20 04:57:17;;;;;;;;;;;21.80;47.40;;;;;;490114;242;1312;-51
2022/08/20 04:59:18;;;;;;;;;;;21.80;47.50;;;;;;489803;242;2415;-51
2022/08/20 05:01:19;;;;;;;;;;;21.90;47.40;;;;;;490315;242;1302;-50
2022/08/20 05:03:21;;;;;;;;;;;21.90;47.40;;;;;;490033;242;1251;-51
2022/08/20 05:05:22;;;;;;;;;;;21.90;47.40;;;;;;490290;242;2193;-51
2022/08/20 05:07:24;;;;;;;;;;;21.80;47.40;;;;;;489933;242;1289;-50
2022/08/20 05:09:25;;;;;;;;;;;21.90;47.50;;;;;;490294;242;1101;-50
2022/08/20 05:11:26;;;;;;;;;;;21.90;47.50;;;;;;490150;242;1294;-51
2022/08/20 05:13:27;;;;;;;;;;;21.80;47.40;;;;;;490079;242;1284;-50
2022/08/20 05:15:29;;;;;;;;;;;21.90;47.50;;;;;;490037;242;1085;-51
2022/08/20 05:17:30;;;;;;;;;;;21.90;47.40;;;;;;490268;242;1288;-50
2022/08/20 05:19:31;;;;;;;;;;;21.90;47.50;;;;;;490325;242;993;-51
2022/08/20 05:21:33;;;;;;;;;;;21.90;47.50;;;;;;490284;242;1236;-51
2022/08/20 05:23:34;;;;;;;;;;;21.80;47.50;;;;;;490267;242;2173;-50
2022/08/20 05:25:35;;;;;;;;;;;21.90;47.50;;;;;;490299;242;1331;-51
2022/08/20 05:27:37;;;;;;;;;;;21.80;47.50;;;;;;489801;242;1345;-51
2022/08/20 05:29:38;;;;;;;;;;;21.80;47.60;;;;;;490275;242;1312;-51
2022/08/20 05:31:40;;;;;;;;;;;21.80;47.50;;;;;;490273;242;1340;-50
2022/08/20 05:33:41;;;;;;;;;;;21.90;47.50;;;;;;489783;242;2329;-51
2022/08/20 05:35:42;;;;;;;;;;;21.90;47.50;;;;;;490106;242;1267;-51
2022/08/20 05:37:44;;;;;;;;;;;21.90;47.60;;;;;;490278;242;1248;-50
2022/08/20 05:39:45;;;;;;;;;;;21.90;47.50;;;;;;490099;242;2167;-51
2022/08/20 05:41:48;;;;;;;;;;;21.90;47.60;;;;;;490269;242;1298;-50
2022/08/20 05:43:47;;;;;;;;;;;21.80;47.50;;;;;;489827;242;2326;-50
2022/08/20 05:45:50;;;;;;;;;;;21.80;47.60;;;;;;489989;242;1322;-51
2022/08/20 05:47:50;;;;;;;;;;;21.80;47.60;;;;;;490230;242;1839;-51
2022/08/20 05:49:52;;;;;;;;;;;21.80;47.50;;;;;;489897;242;1338;-50
2022/08/20 05:51:53;;;;;;;;;;;21.90;47.60;;;;;;490289;242;1267;-51
2022/08/20 05:53:55;;;;;;;;;;;21.90;47.60;;;;;;490011;242;1296;-50
2022/08/20 05:55:56;;;;;;;;;;;21.90;47.50;;;;;;490271;242;1388;-51
2022/08/20 05:57:57;;;;;;;;;;;21.80;47.60;;;;;;490210;242;1294;-51
2022/08/20 05:59:58;;;;;;;;;;;21.90;47.60;;;;;;490277;242;1277;-51
2022/08/20 06:02:00;;;;;;;;;;;21.90;47.60;;;;;;490275;242;1232;-51
2022/08/20 06:06:21;;;;;;;;;;;21.90;47.60;;;;;;489825;241;1337;-50
2022/08/20 06:08:23;;;;;;;;;;;21.90;47.60;;;;;;489796;242;1300;-50
2022/08/20 06:10:23;;;;;;;;;;;21.90;47.70;;;;;;490220;242;2293;-51
2022/08/20 06:12:25;;;;;;;;;;;21.80;47.60;;;;;;490244;242;1331;-51
2022/08/20 06:14:26;;;;;;;;;;;21.90;47.60;;;;;;490293;242;1288;-51
2022/08/20 06:16:27;;;;;;;;;;;21.90;47.70;;;;;;490267;242;1168;-50
2022/08/20 06:18:29;;;;;;;;;;;21.90;47.60;;;;;;490226;242;1300;-51
2022/08/20 06:20:30;;;;;;;;;;;21.90;47.70;;;;;;489912;242;1092;-51
2022/08/20 06:22:31;;;;;;;;;;;21.80;47.60;;;;;;490044;242;1237;-50
2022/08/20 06:24:33;;;;;;;;;;;21.90;47.70;;;;;;490266;242;2196;-50
2022/08/20 06:26:34;;;;;;;;;;;21.90;47.70;;;;;;489816;242;1320;-50
2022/08/20 06:28:35;;;;;;;;;;;21.90;47.70;;;;;;489854;242;1318;-50
2022/08/20 06:30:37;;;;;;;;;;;21.80;47.70;;;;;;490125;242;1373;-50
2022/08/20 06:32:38;;;;;;;;;;;21.80;47.60;;;;;;490293;242;1221;-50
2022/08/20 06:34:39;;;;;;;;;;;21.90;47.70;;;;;;490010;242;1336;-50
2022/08/20 06:36:41;;;;;;;;;;;21.80;47.70;;;;;;490304;242;1280;-51
2022/08/20 06:38:42;;;;;;;;;;;21.80;47.70;;;;;;489818;242;1287;-51
2022/08/20 06:40:43;;;;;;;;;;;21.80;47.70;;;;;;490068;242;1418;-50
2022/08/20 06:42:45;;;;;;;;;;;21.80;47.70;;;;;;490295;242;1392;-51
2022/08/20 06:44:48;;;;;;;;;;;21.80;47.70;;;;;;490270;242;2153;-50
2022/08/20 06:46:47;;;;;;;;;;;21.90;47.80;;;;;;489826;242;2254;-50
2022/08/20 06:48:49;;;;;;;;;;;21.80;47.70;;;;;;490244;242;1281;-51
2022/08/20 06:50:50;;;;;;;;;;;21.90;47.80;;;;;;490269;242;1203;-50
2022/08/20 06:52:51;;;;;;;;;;;21.80;47.80;;;;;;490214;242;1278;-51
2022/08/20 06:54:53;;;;;;;;;;;21.80;47.80;;;;;;490043;242;1306;-51
2022/08/20 06:56:54;;;;;;;;;;;21.80;47.80;;;;;;490169;242;1276;-50
2022/08/20 06:58:55;;;;;;;;;;;21.80;47.80;;;;;;489861;242;1155;-50
2022/08/20 07:00:57;;;;;;;;;;;21.80;47.70;;;;;;489783;242;1259;-51
2022/08/20 07:02:59;;;;;;;;;;;21.90;47.80;;;;;;489903;242;1295;-51
2022/08/20 07:05:00;;;;;;;;;;;21.90;47.80;;;;;;489805;242;2180;-51
2022/08/20 07:07:01;;;;;;;;;;;21.80;47.80;;;;;;489791;242;1292;-50
2022/08/20 07:09:03;;;;;;;;;;;21.80;47.80;;;;;;489885;242;1232;-50
2022/08/20 07:11:04;;;;;;;;;;;21.80;47.80;;;;;;490249;242;1198;-50
2022/08/20 07:13:06;;;;;;;;;;;21.80;47.80;;;;;;489811;242;1110;-51
2022/08/20 07:15:07;;;;;;;;;;;21.80;47.80;;;;;;489904;242;1124;-50
2022/08/20 07:17:08;;;;;;;;;;;21.80;47.80;;;;;;490310;242;1114;-50
2022/08/20 07:19:09;;;;;;;;;;;21.80;47.80;;;;;;490248;242;1044;-51
2022/08/20 07:21:11;;;;;;;;;;;21.80;47.80;;;;;;490201;242;1141;-50
2022/08/20 07:23:12;;;;;;;;;;;21.80;47.80;;;;;;489812;242;1048;-50
2022/08/20 07:25:13;;;;;;;;;;;21.80;47.80;;;;;;490270;242;2157;-51
2022/08/20 07:27:15;;;;;;;;;;;21.80;47.80;;;;;;490287;242;1253;-50
2022/08/20 07:29:16;;;;;;;;;;;21.80;47.80;;;;;;490297;242;1104;-51
2022/08/20 07:33:37;;;;;;;;;;;21.80;47.80;;;;;;490203;241;1096;-51
2022/08/20 07:35:38;;;;;;;;;;;21.80;47.80;;;;;;489952;242;1191;-50
2022/08/20 07:37:40;;;;;;;;;;;21.80;47.80;;;;;;490262;242;1339;-51
2022/08/20 07:39:41;;;;;;;;;;;21.80;47.80;;;;;;490252;242;1217;-50
2022/08/20 07:41:42;;;;;;;;;;;21.80;47.80;;;;;;490077;242;1207;-50
2022/08/20 07:43:44;;;;;;;;;;;21.90;47.90;;;;;;489813;242;1276;-50
2022/08/20 07:45:46;;;;;;;;;;;21.90;47.90;;;;;;489810;242;2161;-50
2022/08/20 07:47:48;;;;;;;;;;;21.80;47.80;;;;;;490015;242;1243;-50
2022/08/20 07:49:48;;;;;;;;;;;21.90;47.90;;;;;;490170;242;1511;-51
2022/08/20 07:51:50;;;;;;;;;;;21.80;47.80;;;;;;489799;242;1363;-51
2022/08/20 07:53:51;;;;;;;;;;;21.80;47.80;;;;;;490259;242;1233;-51
2022/08/20 07:55:52;;;;;;;;;;;21.90;47.90;;;;;;490277;242;1246;-51
2022/08/20 07:57:54;;;;;;;;;;;21.90;47.80;;;;;;489903;242;1351;-50
2022/08/20 07:59:58;;;;;;;;;;;21.90;47.90;;;;;;490300;242;2382;-50
2022/08/20 08:01:57;;;;;;;;;;;21.80;47.80;;;;;;490367;242;1854;-51
2022/08/20 08:03:58;;;;;;;;;;;21.80;47.90;;;;;;489878;242;1028;-50
2022/08/20 08:05:59;;;;;;;;;;;21.80;47.90;;;;;;489968;242;2161;-50
2022/08/20 08:08:01;;;;;;;;;;;21.80;47.90;;;;;;490315;242;1107;-50
2022/08/20 08:10:02;;;;;;;;;;;21.80;47.90;;;;;;490273;242;1016;-50
2022/08/20 08:12:04;;;;;;;;;;;21.80;47.80;;;;;;489971;242;1279;-51
2022/08/20 08:14:05;;;;;;;;;;;21.90;47.90;;;;;;490280;242;1268;-50
2022/08/20 08:16:06;;;;;;;;;;;21.80;47.80;;;;;;490300;242;1078;-50
2022/08/20 08:18:07;;;;;;;;;;;21.80;47.80;;;;;;490060;242;1017;-50
2022/08/20 08:20:11;;;;;;;;;;;21.90;47.90;;;;;;490218;242;1211;-51
2022/08/20 08:22:11;;;;;;;;;;;21.80;47.90;;;;;;489859;242;2309;-51
2022/08/20 08:24:12;;;;;;;;;;;21.90;47.90;;;;;;490266;242;2214;-51
2022/08/20 08:26:13;;;;;;;;;;;21.80;47.90;;;;;;490272;242;2170;-51
2022/08/20 08:28:14;;;;;;;;;;;21.80;47.90;;;;;;489925;242;1310;-50
2022/08/20 08:30:16;;;;;;;;;;;21.80;47.90;;;;;;490115;242;1218;-51
2022/08/20 08:32:17;;;;;;;;;;;21.80;47.90;;;;;;490014;242;1230;-50
2022/08/20 08:34:18;;;;;;;;;;;21.80;47.90;;;;;;490048;242;1284;-50
2022/08/20 08:36:20;;;;;;;;;;;21.80;47.90;;;;;;489792;242;1241;-50
2022/08/20 08:38:22;;;;;;;;;;;21.80;48.00;;;;;;489787;242;1301;-51
2022/08/20 08:40:23;;;;;;;;;;;21.80;47.90;;;;;;490256;242;1358;-50
2022/08/20 08:42:25;;;;;;;;;;;21.80;48.00;;;;;;489821;242;1256;-51
2022/08/20 08:44:26;;;;;;;;;;;21.80;47.90;;;;;;489917;242;2341;-51
2022/08/20 08:46:27;;;;;;;;;;;21.80;47.90;;;;;;490229;242;2188;-49
2022/08/20 08:48:31;;;;;;;;;;;21.80;48.00;;;;;;489970;242;1310;-50
2022/08/20 08:50:30;;;;;;;;;;;21.80;48.00;;;;;;490053;242;2340;-50
2022/08/20 08:52:31;;;;;;;;;;;21.80;48.00;;;;;;490234;242;1381;-50
2022/08/20 08:54:33;;;;;;;;;;;21.80;48.00;;;;;;490245;242;1342;-51
2022/08/20 08:56:34;;;;;;;;;;;21.80;48.00;;;;;;490276;242;1334;-51
2022/08/20 08:58:35;;;;;;;;;;;21.80;48.00;;;;;;489817;242;1315;-50
2022/08/20 09:00:37;;;;;;;;;;;21.80;48.10;;;;;;490046;242;1109;-51
2022/08/20 09:02:41;;;;;;;;;;;21.90;48.10;;;;;;490147;242;1290;-50
2022/08/20 09:04:39;;;;;;;;;;;21.80;48.00;;;;;;489829;242;1959;-51
2022/08/20 09:06:42;;;;;;;;;;;21.80;48.00;;;;;;489801;242;2197;-50
2022/08/20 09:08:42;;;;;;;;;;;21.80;48.00;;;;;;490248;242;2198;-51
2022/08/20 09:10:43;;;;;;;;;;;21.80;48.10;;;;;;490257;242;1303;-50
2022/08/20 09:12:45;;;;;;;;;;;21.80;48.00;;;;;;490284;242;1214;-51
2022/08/20 09:14:47;;;;;;;;;;;21.80;48.10;;;;;;489894;242;1302;-51
2022/08/20 09:16:48;;;;;;;;;;;21.80;48.10;;;;;;489835;242;1330;-51
2022/08/20 09:18:50;;;;;;;;;;;21.80;48.10;;;;;;490210;242;1378;-50
2022/08/20 09:20:51;;;;;;;;;;;21.80;48.10;;;;;;490227;242;1250;-51
2022/08/20 09:22:52;;;;;;;;;;;21.80;48.10;;;;;;490275;242;1362;-50
2022/08/20 09:24:55;;;;;;;;;;;21.80;48.10;;;;;;490259;242;1215;-51
2022/08/20 09:26:55;;;;;;;;;;;21.80;48.10;;;;;;490240;242;2185;-50
2022/08/20 09:28:56;;;;;;;;;;;21.80;48.10;;;;;;490202;242;1252;-50
2022/08/20 09:30:58;;;;;;;;;;;21.80;48.10;;;;;;490092;242;1264;-50
2022/08/20 09:32:59;;;;;;;;;;;21.80;48.10;;;;;;489963;242;1305;-50
2022/08/20 09:35:00;;;;;;;;;;;21.80;48.10;;;;;;490128;242;1243;-51
2022/08/20 09:37:02;;;;;;;;;;;21.80;48.10;;;;;;490026;242;1331;-51
2022/08/20 09:39:03;;;;;;;;;;;21.80;48.20;;;;;;490289;242;1285;-51
2022/08/20 09:41:04;;;;;;;;;;;21.80;48.10;;;;;;490293;242;1239;-51
2022/08/20 09:43:06;;;;;;;;;;;21.80;48.10;;;;;;490329;242;1304;-51
2022/08/20 09:45:07;;;;;;;;;;;21.80;48.10;;;;;;490309;242;2157;-51
2022/08/20 09:47:08;;;;;;;;;;;21.80;48.20;;;;;;490126;242;1330;-50
2022/08/20 09:49:10;;;;;;;;;;;21.80;48.20;;;;;;490301;242;1290;-51
2022/08/20 09:51:11;;;;;;;;;;;21.80;48.20;;;;;;489843;242;1227;-50
2022/08/20 09:53:12;;;;;;;;;;;21.80;48.20;;;;;;490292;242;1248;-51
2022/08/20 09:55:14;;;;;;;;;;;21.80;48.20;;;;;;490299;242;1320;-50
2022/08/20 09:57:15;;;;;;;;;;;21.80;48.20;;;;;;490121;242;1266;-50
2022/08/20 09:59:16;;;;;;;;;;;21.80;48.20;;;;;;490258;242;1203;-50
2022/08/20 10:01:18;;;;;;;;;;;21.80;48.20;;;;;;490274;242;1291;-50
2022/08/20 10:03:19;;;;;;;;;;;21.80;48.20;;;;;;490279;242;1298;-51
2022/08/20 10:05:20;;;;;;;;;;;21.80;48.20;;;;;;490190;242;2164;-50
2022/08/20 10:07:22;;;;;;;;;;;21.80;48.20;;;;;;489985;242;1315;-50
2022/08/20 10:09:23;;;;;;;;;;;21.80;48.20;;;;;;489804;242;1318;-50
2022/08/20 10:11:24;;;;;;;;;;;21.80;48.20;;;;;;490272;242;1196;-51
2022/08/20 10:13:26;;;;;;;;;;;21.80;48.30;;;;;;490255;242;1348;-51
2022/08/20 10:15:27;;;;;;;;;;;21.80;48.20;;;;;;489819;242;1489;-51
2022/08/20 10:17:28;;;;;;;;;;;21.80;48.20;;;;;;490177;242;1265;-51
2022/08/20 10:19:30;;;;;;;;;;;21.80;48.20;;;;;;490273;242;1292;-51
2022/08/20 10:21:31;;;;;;;;;;;21.80;48.20;;;;;;490265;242;1273;-51
2022/08/20 10:23:32;;;;;;;;;;;21.80;48.20;;;;;;489773;242;1274;-51
2022/08/20 10:25:34;;;;;;;;;;;21.80;48.20;;;;;;489791;242;2156;-51
2022/08/20 10:27:35;;;;;;;;;;;21.80;48.20;;;;;;490281;242;1246;-50
2022/08/20 10:29:36;;;;;;;;;;;21.80;48.30;;;;;;489830;242;1263;-50
2022/08/20 10:31:38;;;;;;;;;;;21.80;48.30;;;;;;490278;242;1346;-50
2022/08/20 10:33:39;;;;;;;;;;;21.80;48.30;;;;;;490030;242;1318;-51
2022/08/20 10:35:40;;;;;;;;;;;21.80;48.20;;;;;;490266;242;1208;-51
2022/08/20 10:37:42;;;;;;;;;;;21.80;48.30;;;;;;490059;242;1228;-51
2022/08/20 10:39:43;;;;;;;;;;;21.80;48.30;;;;;;490236;242;1299;-50
2022/08/20 10:41:44;;;;;;;;;;;21.80;48.30;;;;;;490111;241;1263;-51
2022/08/20 10:43:45;;;;;;;;;;;21.80;48.40;;;;;;490226;242;1313;-50
2022/08/20 10:45:47;;;;;;;;;;;21.80;48.40;;;;;;489791;242;2219;-50
2022/08/20 10:47:48;;;;;;;;;;;21.80;48.40;;;;;;490252;242;1284;-51
2022/08/20 10:49:49;;;;;;;;;;;21.80;48.40;;;;;;490245;242;1360;-50
2022/08/20 10:51:51;;;;;;;;;;;21.80;48.30;;;;;;490243;242;1348;-51
2022/08/20 10:53:52;;;;;;;;;;;21.80;48.30;;;;;;489793;242;1264;-50
2022/08/20 10:55:53;;;;;;;;;;;21.80;48.40;;;;;;490256;242;1295;-51
2022/08/20 10:57:55;;;;;;;;;;;21.80;48.30;;;;;;490257;242;1383;-50
2022/08/20 10:59:56;;;;;;;;;;;21.80;48.30;;;;;;490247;242;1332;-51
2022/08/20 11:01:57;;;;;;;;;;;21.80;48.40;;;;;;490173;242;1275;-51
2022/08/20 11:03:59;;;;;;;;;;;21.80;48.40;;;;;;490192;242;1350;-51
2022/08/20 11:06:00;;;;;;;;;;;21.80;48.30;;;;;;490243;242;2165;-51
2022/08/20 11:08:01;;;;;;;;;;;21.80;48.30;;;;;;490035;242;1310;-50
2022/08/20 11:10:03;;;;;;;;;;;21.80;48.40;;;;;;489811;242;1365;-51
2022/08/20 11:12:04;;;;;;;;;;;21.80;48.30;;;;;;489740;242;1288;-51
2022/08/20 11:14:05;;;;;;;;;;;21.80;48.30;;;;;;489857;242;1441;-50
2022/08/20 11:16:07;;;;;;;;;;;21.80;48.30;;;;;;489765;242;1373;-50
2022/08/20 11:18:08;;;;;;;;;;;21.80;48.40;;;;;;489869;242;1452;-50
2022/08/20 11:20:10;;;;;;;;;;;21.80;48.40;;;;;;489750;242;1281;-50
2022/08/20 11:22:11;;;;;;;;;;;21.80;48.40;;;;;;490227;242;1221;-50
2022/08/20 11:24:12;;;;;;;;;;;21.80;48.40;;;;;;489822;242;1247;-51
2022/08/20 11:26:14;;;;;;;;;;;21.80;48.40;;;;;;490144;242;2142;-51
2022/08/20 11:28:15;;;;;;;;;;;21.80;48.40;;;;;;489813;242;1170;-51
2022/08/20 11:30:16;;;;;;;;;;;21.80;48.40;;;;;;490289;242;1292;-50
2022/08/20 11:32:18;;;;;;;;;;;21.80;48.40;;;;;;490303;242;1318;-51
2022/08/20 11:34:19;;;;;;;;;;;21.80;48.40;;;;;;490301;242;1275;-50
2022/08/20 11:36:25;;;;;;;;;;;21.80;48.40;;;;;;490115;242;1326;-51
2022/08/20 11:38:22;;;;;;;;;;;21.80;48.40;;;;;;490191;242;1394;-51
2022/08/20 11:40:23;;;;;;;;;;;21.80;48.50;;;;;;490271;242;1268;-50
2022/08/20 11:42:24;;;;;;;;;;;21.80;48.40;;;;;;490269;242;1294;-50
2022/08/20 11:44:26;;;;;;;;;;;21.80;48.50;;;;;;490280;242;1259;-51
2022/08/20 11:46:27;;;;;;;;;;;21.80;48.40;;;;;;490256;242;2166;-51
2022/08/20 11:48:28;;;;;;;;;;;21.80;48.40;;;;;;489829;242;1109;-50
2022/08/20 11:50:30;;;;;;;;;;;21.80;48.40;;;;;;490281;242;1245;-51
2022/08/20 11:52:31;;;;;;;;;;;21.80;48.40;;;;;;490282;242;1272;-51
2022/08/20 11:54:32;;;;;;;;;;;21.80;48.40;;;;;;489869;242;1117;-50
2022/08/20 11:56:33;;;;;;;;;;;21.80;48.50;;;;;;490004;242;1290;-51
2022/08/20 11:58:35;;;;;;;;;;;21.80;48.50;;;;;;490274;242;1240;-50
2022/08/20 12:00:36;;;;;;;;;;;21.80;48.50;;;;;;490248;242;1296;-51
2022/08/20 12:02:37;;;;;;;;;;;21.80;48.50;;;;;;489960;242;1226;-50
2022/08/20 12:04:39;;;;;;;;;;;21.80;48.50;;;;;;490227;242;1238;-50